Time;durP1;ratioP1;P1;durP2;ratioP2;P2;SDS_P1;SDS_P2;PMS_P1;PMS_P2;Temp;Humidity;BMP_temperature;BMP_pressure;BME280_temperature;BME280_humidity;BME280_pressure;Samples;Min_cycle;Max_cycle;Signal;HPM_P1;HPM_P2
2022/09/02 00:01:18;;;;;;;0.70;0.63;;;;;;;16.56;46.42;101887.56;4936979;28;97163;-46
2022/09/02 00:03:45;;;;;;;0.60;0.60;;;;;;;16.54;46.00;101892.84;4941421;28;96708;-46
2022/09/02 00:06:11;;;;;;;0.77;0.60;;;;;;;16.49;46.04;101892.31;4942576;28;97249;-49
2022/09/02 00:08:37;;;;;;;0.70;0.50;;;;;;;16.45;46.10;101883.47;4939444;28;97354;-49
2022/09/02 00:11:04;;;;;;;0.50;0.50;;;;;;;16.43;46.30;101888.03;4942510;28;98432;-48
2022/09/02 00:13:31;;;;;;;0.93;0.50;;;;;;;16.42;46.54;101892.81;4938753;28;97196;-46
2022/09/02 00:15:56;;;;;;;0.50;0.40;;;;;;;16.37;46.36;101882.47;4942737;28;97122;-49
2022/09/02 00:18:26;;;;;;;1.63;0.60;;;;;;;16.35;46.43;101893.31;4943164;28;97870;-51
2022/09/02 00:20:52;;;;;;;0.50;0.40;;;;;;;16.34;46.53;101883.47;4943459;28;97356;-49
2022/09/02 00:23:18;;;;;;;0.53;0.53;;;;;;;16.31;46.66;101875.38;4942643;28;97216;-47
2022/09/02 00:25:44;;;;;;;0.50;0.40;;;;;;;16.31;46.58;101875.38;4940637;28;97104;-50
2022/09/02 00:28:11;;;;;;;0.57;0.47;;;;;;;16.30;46.57;101874.63;4943099;28;97659;-46
2022/09/02 00:30:37;;;;;;;0.60;0.50;;;;;;;16.31;46.70;101872.59;4939497;28;100383;-46
2022/09/02 00:33:04;;;;;;;0.60;0.50;;;;;;;16.26;46.79;101868.56;4937058;28;97020;-47
2022/09/02 00:35:30;;;;;;;0.50;0.50;;;;;;;16.22;46.86;101868.06;4937208;28;97452;-46
2022/09/02 00:37:55;;;;;;;0.60;0.60;;;;;;;16.19;46.90;101862.72;4944458;28;97087;-48
2022/09/02 00:40:22;;;;;;;0.50;0.40;;;;;;;16.18;47.13;101864.78;4940823;28;97111;-48
2022/09/02 00:42:48;;;;;;;0.50;0.50;;;;;;;16.19;46.99;101871.81;4940998;28;97603;-46
2022/09/02 00:45:13;;;;;;;0.50;0.40;;;;;;;16.16;47.06;101867.25;4938892;28;98158;-48
2022/09/02 00:47:39;;;;;;;0.67;0.53;;;;;;;16.15;47.01;101876.09;4939767;28;96887;-47
2022/09/02 00:50:09;;;;;;;0.50;0.43;;;;;;;16.11;47.48;101867.25;4931492;28;96954;-48
2022/09/02 00:52:40;;;;;;;0.50;0.50;;;;;;;16.12;47.46;101866.00;4939310;28;97124;-47
2022/09/02 00:55:16;;;;;;;0.47;0.30;;;;;;;16.11;47.82;101868.03;4937505;28;97184;-47
2022/09/02 00:57:46;;;;;;;0.50;0.50;;;;;;;16.09;47.40;101862.22;4937743;28;97611;-46
2022/09/02 01:00:19;;;;;;;0.50;0.40;;;;;;;16.07;47.79;101867.50;4938499;28;97214;-47
2022/09/02 01:02:51;;;;;;;1.17;0.60;;;;;;;16.04;47.74;101862.19;4939547;28;97369;-46
2022/09/02 01:05:22;;;;;;;0.50;0.40;;;;;;;16.02;47.47;101865.47;4938523;28;97217;-48
2022/09/02 01:07:50;;;;;;;0.50;0.40;;;;;;;16.01;47.41;101863.94;4934948;28;97563;-47
2022/09/02 01:10:19;;;;;;;0.50;0.47;;;;;;;16.00;47.58;101859.66;4942032;28;97870;-46
2022/09/02 01:12:45;;;;;;;0.53;0.50;;;;;;;15.97;47.63;101855.09;4941146;28;96778;-50
2022/09/02 01:15:12;;;;;;;1.73;0.67;;;;;;;15.96;47.69;101859.16;4941960;28;97133;-50
2022/09/02 01:17:48;;;;;;;0.50;0.40;;;;;;;15.94;48.52;101855.34;4935278;28;97375;-47
2022/09/02 01:20:17;;;;;;;0.50;0.40;;;;;;;15.90;47.81;101861.13;4939260;28;97261;-46
2022/09/02 01:22:44;;;;;;;0.50;0.50;;;;;;;15.90;47.84;101850.03;4941276;28;97105;-46
2022/09/02 01:25:26;;;;;;;0.50;0.40;;;;;;;15.89;49.00;101851.31;4939564;28;96977;-47
2022/09/02 01:27:52;;;;;;;0.90;0.80;;;;;;;15.85;47.96;101850.03;4937995;28;96851;-50
2022/09/02 01:30:23;;;;;;;0.60;0.50;;;;;;;15.84;48.24;101854.81;4938280;28;97214;-47
2022/09/02 01:32:49;;;;;;;0.50;0.50;;;;;;;15.83;47.96;101852.53;4935419;28;98393;-47
2022/09/02 01:35:15;;;;;;;0.80;0.50;;;;;;;15.82;48.10;101845.47;4940890;28;97213;-47
2022/09/02 01:37:41;;;;;;;0.60;0.60;;;;;;;15.80;48.12;101845.97;4940824;28;97526;-46
2022/09/02 01:40:10;;;;;;;0.50;0.40;;;;;;;15.78;48.21;101851.28;4936811;28;101683;-46
2022/09/02 01:42:37;;;;;;;0.73;0.50;;;;;;;15.78;48.06;101842.94;4937668;28;96985;-46
2022/09/02 01:45:03;;;;;;;0.80;0.57;;;;;;;15.71;48.14;101846.97;4940562;28;96994;-49
2022/09/02 01:47:29;;;;;;;0.60;0.40;;;;;;;15.64;48.26;101839.09;4939967;28;97807;-47
2022/09/02 01:49:54;;;;;;;0.80;0.53;;;;;;;15.61;48.39;101829.03;4938965;28;97455;-48
2022/09/02 01:52:23;;;;;;;0.60;0.50;;;;;;;15.57;48.46;101827.75;4935329;28;96921;-46
2022/09/02 01:54:48;;;;;;;0.50;0.40;;;;;;;15.53;48.37;101830.72;4936377;28;96997;-48
2022/09/02 01:57:14;;;;;;;0.50;0.50;;;;;;;15.49;48.57;101823.91;4936143;28;97354;-47
2022/09/02 01:59:40;;;;;;;0.60;0.50;;;;;;;15.49;48.62;101821.13;4939578;28;97090;-47
2022/09/02 02:02:06;;;;;;;2.50;0.73;;;;;;;15.48;48.59;101825.94;4931538;28;97182;-47
2022/09/02 02:04:32;;;;;;;0.60;0.50;;;;;;;15.44;48.78;101828.16;4940064;28;97402;-50
2022/09/02 02:06:58;;;;;;;0.70;0.70;;;;;;;15.41;48.75;101828.38;4931396;28;97104;-47
2022/09/02 02:09:24;;;;;;;0.60;0.57;;;;;;;15.38;48.81;101826.59;4939220;28;96994;-47
2022/09/02 02:11:49;;;;;;;0.50;0.40;;;;;;;15.31;48.83;101816.72;4937677;28;96930;-47
2022/09/02 02:14:15;;;;;;;1.00;0.40;;;;;;;15.26;48.81;101819.50;4937521;28;97120;-46
2022/09/02 02:16:41;;;;;;;1.03;0.60;;;;;;;15.24;48.71;101820.00;4939601;28;97911;-47
2022/09/02 02:19:06;;;;;;;0.60;0.47;;;;;;;15.21;48.96;101815.44;4937977;28;110653;-47
2022/09/02 02:21:32;;;;;;;0.70;0.50;;;;;;;15.19;49.06;101817.19;4936996;28;96998;-47
2022/09/02 02:24:00;;;;;;;0.57;0.50;;;;;;;15.18;49.05;101816.41;4938316;28;97198;-47
2022/09/02 02:26:26;;;;;;;0.50;0.40;;;;;;;15.15;49.21;101822.97;4935273;28;97070;-47
2022/09/02 02:28:52;;;;;;;0.50;0.50;;;;;;;15.12;49.08;101812.84;4938566;28;98901;-46
2022/09/02 02:31:17;;;;;;;0.60;0.50;;;;;;;15.07;49.18;101816.34;4939524;28;97108;-49
2022/09/02 02:33:42;;;;;;;0.50;0.50;;;;;;;15.05;49.22;101818.13;4938393;28;96930;-47
2022/09/02 02:36:08;;;;;;;0.93;0.50;;;;;;;15.00;49.31;101814.78;4939950;28;96962;-49
2022/09/02 02:38:36;;;;;;;0.50;0.40;;;;;;;14.99;49.34;101818.84;4941279;28;97368;-48
2022/09/02 02:41:03;;;;;;;0.57;0.53;;;;;;;14.93;49.44;101814.50;4938073;28;97589;-48
2022/09/02 02:43:29;;;;;;;0.50;0.40;;;;;;;14.89;49.48;101811.97;4940370;28;97354;-49
2022/09/02 02:45:54;;;;;;;0.60;0.50;;;;;;;14.84;49.55;101804.38;4935139;28;97196;-48
2022/09/02 02:48:20;;;;;;;0.60;0.57;;;;;;;14.81;49.68;101808.13;4938127;28;98445;-48
2022/09/02 02:50:45;;;;;;;0.77;0.63;;;;;;;14.82;49.69;101806.88;4937032;28;97249;-46
2022/09/02 02:53:11;;;;;;;2.47;0.80;;;;;;;14.83;49.69;101807.66;4939064;28;97194;-47
2022/09/02 02:55:37;;;;;;;0.50;0.50;;;;;;;14.82;49.74;101809.66;4931549;28;97289;-47
2022/09/02 02:58:03;;;;;;;0.60;0.43;;;;;;;14.78;49.80;101806.38;4935234;28;98434;-48
2022/09/02 03:00:31;;;;;;;0.50;0.47;;;;;;;14.78;49.72;101800.06;4933694;28;97188;-47
2022/09/02 03:02:59;;;;;;;1.00;0.70;;;;;;;14.77;50.02;101802.06;4939573;28;97021;-49
2022/09/02 03:05:25;;;;;;;0.50;0.40;;;;;;;14.72;50.07;101797.22;4942262;28;97387;-46
2022/09/02 03:07:51;;;;;;;0.67;0.60;;;;;;;14.68;49.94;101799.47;4939248;28;97445;-48
2022/09/02 03:10:17;;;;;;;0.50;0.40;;;;;;;14.67;50.05;101799.97;4935604;28;97247;-47
2022/09/02 03:12:46;;;;;;;0.60;0.50;;;;;;;14.67;50.18;101806.28;4943041;28;97084;-47
2022/09/02 03:15:15;;;;;;;0.50;0.50;;;;;;;14.67;50.13;101797.19;4937363;28;99796;-50
2022/09/02 03:17:42;;;;;;;0.60;0.50;;;;;;;14.64;50.16;101798.94;4938663;28;97650;-47
2022/09/02 03:20:07;;;;;;;0.50;0.40;;;;;;;14.64;50.35;101793.41;4941673;28;96982;-46
2022/09/02 03:22:34;;;;;;;0.50;0.50;;;;;;;14.61;50.32;101791.59;4939378;28;97071;-47
2022/09/02 03:25:00;;;;;;;0.50;0.50;;;;;;;14.59;50.36;101788.56;4942716;28;99473;-48
2022/09/02 03:27:26;;;;;;;0.50;0.50;;;;;;;14.59;50.48;101791.34;4935644;28;97886;-47
2022/09/02 03:29:51;;;;;;;1.00;0.50;;;;;;;14.55;50.53;101788.03;4944580;28;96800;-48
2022/09/02 03:32:16;;;;;;;0.60;0.53;;;;;;;14.55;50.41;101784.50;4940159;28;97400;-48
2022/09/02 03:34:42;;;;;;;0.50;0.50;;;;;;;14.53;50.51;101784.25;4942631;28;96772;-46
2022/09/02 03:37:08;;;;;;;0.50;0.50;;;;;;;14.49;50.59;101784.47;4941004;28;96880;-47
2022/09/02 03:39:35;;;;;;;0.50;0.50;;;;;;;14.47;50.69;101791.75;4940400;28;97143;-48
2022/09/02 03:42:00;;;;;;;0.70;0.50;;;;;;;14.44;50.78;101782.41;4935335;28;97046;-48
2022/09/02 03:44:26;;;;;;;0.50;0.47;;;;;;;14.44;50.82;101781.69;4941182;28;105988;-47
2022/09/02 03:46:52;;;;;;;0.50;0.50;;;;;;;14.43;50.94;101777.38;4937437;28;97230;-47
2022/09/02 03:49:17;;;;;;;0.60;0.50;;;;;;;14.41;50.92;101780.66;4941647;28;97171;-46
2022/09/02 03:51:43;;;;;;;0.50;0.50;;;;;;;14.40;50.92;101773.59;4934702;28;96854;-46
2022/09/02 03:54:09;;;;;;;0.70;0.50;;;;;;;14.38;50.99;101772.56;4940180;28;97244;-48
2022/09/02 03:56:35;;;;;;;0.60;0.60;;;;;;;14.38;50.93;101769.78;4930971;28;101616;-48
2022/09/02 03:59:01;;;;;;;0.50;0.50;;;;;;;14.36;51.13;101770.28;4935836;28;97291;-49
2022/09/02 04:01:27;;;;;;;2.00;0.50;;;;;;;14.35;51.04;101779.09;4940430;28;97009;-47
2022/09/02 04:03:53;;;;;;;0.90;0.40;;;;;;;14.32;51.05;101774.53;4942435;28;97393;-46
2022/09/02 04:06:20;;;;;;;0.50;0.40;;;;;;;14.29;51.25;101767.94;4937809;28;97787;-47
2022/09/02 04:08:46;;;;;;;0.70;0.50;;;;;;;14.27;51.19;101770.41;4936695;28;97277;-48
2022/09/02 04:11:17;;;;;;;1.33;0.50;;;;;;;14.26;51.44;101777.22;4938356;28;97459;-47
2022/09/02 04:13:44;;;;;;;0.90;0.50;;;;;;;14.24;51.37;101769.38;4938192;28;97079;-46
2022/09/02 04:16:12;;;;;;;0.60;0.60;;;;;;;14.24;51.49;101774.19;4940191;28;97396;-48
2022/09/02 04:18:38;;;;;;;0.50;0.50;;;;;;;14.23;51.43;101776.19;4941377;28;96734;-50
2022/09/02 04:21:04;;;;;;;0.60;0.50;;;;;;;14.24;51.65;101774.19;4934706;28;96954;-47
2022/09/02 04:23:30;;;;;;;0.53;0.50;;;;;;;14.23;51.50;101780.97;4936543;28;98857;-49
2022/09/02 04:25:56;;;;;;;0.50;0.40;;;;;;;14.22;51.52;101779.44;4938473;28;97326;-50
2022/09/02 04:28:22;;;;;;;0.60;0.60;;;;;;;14.18;51.60;101771.34;4938223;28;98007;-47
2022/09/02 04:30:47;;;;;;;0.60;0.60;;;;;;;14.15;51.59;101777.88;4938760;28;97301;-47
2022/09/02 04:33:13;;;;;;;0.50;0.50;;;;;;;14.15;51.69;101779.91;4941120;28;97416;-48
2022/09/02 04:35:43;;;;;;;0.80;0.80;;;;;;;14.13;51.77;101769.28;4936738;28;97184;-48
2022/09/02 04:38:10;;;;;;;0.90;0.50;;;;;;;14.11;51.90;101773.78;4935906;28;97422;-47
2022/09/02 04:40:40;;;;;;;2.10;0.50;;;;;;;14.09;52.17;101777.06;4943784;28;96953;-47
2022/09/02 04:43:06;;;;;;;0.60;0.50;;;;;;;14.08;52.01;101777.56;4939920;28;97048;-47
2022/09/02 04:45:31;;;;;;;0.60;0.53;;;;;;;14.08;51.96;101770.03;4940117;28;97446;-50
2022/09/02 04:47:56;;;;;;;0.50;0.50;;;;;;;14.08;51.86;101775.56;4937988;28;96728;-48
2022/09/02 04:50:22;;;;;;;0.60;0.43;;;;;;;14.07;51.86;101776.78;4938245;28;97113;-47
2022/09/02 04:52:47;;;;;;;0.50;0.43;;;;;;;14.06;51.90;101780.06;4939703;28;98593;-49
2022/09/02 04:55:12;;;;;;;0.60;0.60;;;;;;;14.05;52.00;101775.75;4941506;28;109881;-46
2022/09/02 04:57:38;;;;;;;0.50;0.40;;;;;;;14.03;52.10;101773.50;4936448;28;104486;-49
2022/09/02 05:00:06;;;;;;;0.90;0.63;;;;;;;14.02;52.09;101780.25;4940865;28;97189;-47
2022/09/02 05:02:31;;;;;;;0.70;0.70;;;;;;;14.01;52.17;101778.00;4931504;28;97244;-49
2022/09/02 05:04:57;;;;;;;1.30;0.67;;;;;;;14.01;52.19;101784.28;4936249;28;97262;-47
2022/09/02 05:07:22;;;;;;;1.17;0.70;;;;;;;14.00;52.33;101773.72;4937924;28;97743;-49
2022/09/02 05:09:48;;;;;;;3.13;0.60;;;;;;;13.98;52.31;101774.19;4939541;28;97604;-47
2022/09/02 05:12:13;;;;;;;0.50;0.40;;;;;;;14.00;52.30;101779.25;4938732;28;97221;-48
2022/09/02 05:14:39;;;;;;;0.60;0.60;;;;;;;13.99;52.54;101780.47;4940032;28;98730;-48
2022/09/02 05:17:04;;;;;;;0.63;0.53;;;;;;;13.97;52.35;101777.44;4936696;28;97247;-47
2022/09/02 05:19:29;;;;;;;0.50;0.50;;;;;;;13.95;52.50;101780.72;4938584;28;97242;-47
2022/09/02 05:21:57;;;;;;;0.60;0.50;;;;;;;13.98;52.52;101776.19;4939220;28;96831;-49
2022/09/02 05:24:24;;;;;;;1.37;0.70;;;;;;;13.99;52.55;101775.72;4940729;28;100113;-48
2022/09/02 05:26:50;;;;;;;1.30;0.60;;;;;;;14.01;52.59;101770.44;4939006;28;96851;-50
2022/09/02 05:29:19;;;;;;;0.53;0.53;;;;;;;14.03;52.42;101767.19;4937761;28;98427;-47
2022/09/02 05:31:46;;;;;;;0.97;0.50;;;;;;;14.04;52.46;101777.03;4927628;28;97387;-49
2022/09/02 05:34:11;;;;;;;1.27;0.70;;;;;;;14.05;52.52;101773.00;4936457;28;97344;-47
2022/09/02 05:36:37;;;;;;;0.47;0.40;;;;;;;14.05;52.66;101767.47;4940229;28;97127;-47
2022/09/02 05:39:03;;;;;;;0.63;0.50;;;;;;;14.04;52.73;101765.94;4937675;28;97230;-47
2022/09/02 05:41:29;;;;;;;0.60;0.50;;;;;;;14.03;52.91;101764.41;4937693;28;97997;-47
2022/09/02 05:43:58;;;;;;;0.60;0.50;;;;;;;14.05;52.94;101771.00;4937136;28;97352;-50
2022/09/02 05:46:24;;;;;;;0.70;0.70;;;;;;;14.04;53.06;101766.69;4939386;28;97185;-49
2022/09/02 05:49:07;;;;;;;0.70;0.70;;;;;;;14.11;53.11;101771.03;4935612;28;96940;-48
2022/09/02 05:51:40;;;;;;;0.50;0.50;;;;;;;14.17;53.22;101769.09;4937944;28;97582;-49
2022/09/02 05:54:06;;;;;;;0.50;0.50;;;;;;;14.22;52.98;101762.81;4937060;28;97343;-48
2022/09/02 05:56:32;;;;;;;0.80;0.80;;;;;;;14.27;53.14;101765.66;4936079;28;97919;-47
2022/09/02 05:59:00;;;;;;;0.70;0.70;;;;;;;14.33;53.23;101768.47;4941319;28;97091;-50
2022/09/02 06:01:25;;;;;;;0.63;0.63;;;;;;;14.37;53.13;101768.28;4939095;28;100422;-49
2022/09/02 06:03:51;;;;;;;0.50;0.40;;;;;;;14.43;53.35;101774.63;4937587;28;97210;-47
2022/09/02 06:06:20;;;;;;;0.53;0.53;;;;;;;14.50;53.29;101776.94;4937705;28;98412;-46
2022/09/02 06:08:46;;;;;;;0.57;0.57;;;;;;;14.57;53.26;101763.38;4935953;28;97471;-47
2022/09/02 06:11:12;;;;;;;0.60;0.60;;;;;;;14.62;53.37;101764.69;4940035;28;97154;-49
2022/09/02 06:13:40;;;;;;;1.87;0.70;;;;;;;14.66;53.47;101765.19;4937931;28;97198;-47
2022/09/02 06:16:09;;;;;;;0.60;0.53;;;;;;;14.70;53.45;101769.25;4940001;28;96941;-52
2022/09/02 06:18:35;;;;;;;1.27;0.83;;;;;;;14.78;53.43;101761.28;4939095;28;97190;-50
2022/09/02 06:21:03;;;;;;;0.70;0.63;;;;;;;14.88;53.53;101765.34;4941659;28;97224;-50
2022/09/02 06:23:28;;;;;;;0.60;0.60;;;;;;;14.97;53.51;101763.16;4937200;28;98459;-46
2022/09/02 06:25:53;;;;;;;3.57;0.80;;;;;;;15.07;53.63;101771.25;4937117;28;97314;-47
2022/09/02 06:28:19;;;;;;;0.70;0.70;;;;;;;15.14;53.44;101759.69;4938792;28;97290;-48
2022/09/02 06:30:47;;;;;;;0.77;0.77;;;;;;;15.23;53.47;101765.78;4936933;28;98481;-47
2022/09/02 06:33:13;;;;;;;0.80;0.77;;;;;;;15.31;53.46;101772.38;4939379;28;97899;-47
2022/09/02 06:35:42;;;;;;;0.73;0.73;;;;;;;15.37;53.49;101773.16;4937893;28;97069;-48
2022/09/02 06:38:09;;;;;;;0.87;0.87;;;;;;;15.46;53.47;101770.22;4937176;28;97172;-49
2022/09/02 06:40:35;;;;;;;1.47;0.90;;;;;;;15.52;53.60;101773.75;4925597;28;98520;-48
2022/09/02 06:43:01;;;;;;;1.00;0.80;;;;;;;15.62;53.55;101777.81;4938836;28;97541;-48
2022/09/02 06:45:26;;;;;;;1.00;0.87;;;;;;;15.70;53.58;101770.50;4940474;28;103970;-47
2022/09/02 06:47:52;;;;;;;1.07;0.83;;;;;;;15.82;53.50;101770.53;4939580;28;97038;-46
2022/09/02 06:50:19;;;;;;;1.40;1.27;;;;;;;15.93;53.32;101781.66;4937089;28;98818;-49
2022/09/02 06:52:44;;;;;;;1.27;1.17;;;;;;;16.02;53.36;101771.09;4938794;28;97772;-48
2022/09/02 06:55:10;;;;;;;1.17;1.07;;;;;;;16.12;53.33;101766.81;4932574;28;96725;-47
2022/09/02 06:57:37;;;;;;;1.13;0.93;;;;;;;16.23;53.24;101775.13;4940539;28;97415;-48
2022/09/02 07:00:07;;;;;;;0.90;0.90;;;;;;;16.32;53.40;101772.13;4939063;28;96830;-47
2022/09/02 07:02:33;;;;;;;0.70;0.70;;;;;;;16.41;53.19;101779.44;4940624;28;96797;-48
2022/09/02 07:05:14;;;;;;;0.70;0.70;;;;;;;16.49;53.19;101769.31;4939173;28;96740;-47
2022/09/02 07:07:42;;;;;;;0.70;0.70;;;;;;;16.58;53.08;101771.13;4936781;28;97001;-50
2022/09/02 07:10:10;;;;;;;3.40;0.97;;;;;;;16.67;53.01;101765.28;4931426;28;97434;-49
2022/09/02 07:12:38;;;;;;;1.33;1.07;;;;;;;16.78;52.95;101770.84;4936777;28;97779;-50
2022/09/02 07:15:05;;;;;;;1.17;1.10;;;;;;;16.84;53.00;101774.38;4935951;28;97136;-51
2022/09/02 07:17:32;;;;;;;1.20;0.97;;;;;;;16.90;52.99;101767.53;4935106;28;96710;-47
2022/09/02 07:19:59;;;;;;;1.37;0.80;;;;;;;17.01;52.91;101761.94;4937911;28;97114;-47
2022/09/02 07:22:26;;;;;;;2.13;0.90;;;;;;;17.13;52.77;101766.19;4937008;28;96841;-50
2022/09/02 07:24:51;;;;;;;1.20;0.93;;;;;;;17.25;52.65;101762.09;4940257;28;97773;-47
2022/09/02 07:27:19;;;;;;;1.03;1.00;;;;;;;17.35;52.41;101759.78;4938920;28;97133;-49
2022/09/02 07:29:47;;;;;;;0.80;0.80;;;;;;;17.46;52.58;101762.53;4937695;28;97618;-47
2022/09/02 07:32:13;;;;;;;1.33;1.23;;;;;;;17.56;52.46;101757.44;4935189;28;97807;-47
2022/09/02 07:34:38;;;;;;;1.33;1.20;;;;;;;17.67;52.23;101751.81;4939536;28;97270;-48
2022/09/02 07:37:04;;;;;;;0.90;0.90;;;;;;;17.80;52.22;101758.28;4937370;28;96817;-47
2022/09/02 07:39:29;;;;;;;1.07;1.03;;;;;;;17.92;52.17;101765.31;4936339;28;97376;-48
2022/09/02 07:41:55;;;;;;;0.83;0.83;;;;;;;18.02;52.04;101760.16;4934104;28;109448;-47
2022/09/02 07:44:20;;;;;;;1.43;0.90;;;;;;;18.14;52.06;101760.84;4937375;28;97765;-47
2022/09/02 07:46:46;;;;;;;1.13;0.80;;;;;;;18.24;51.76;101764.84;4939468;28;104495;-48
2022/09/02 07:49:12;;;;;;;0.80;0.80;;;;;;;18.35;51.84;101767.50;4940002;28;97830;-48
2022/09/02 07:51:40;;;;;;;1.10;1.10;;;;;;;18.47;51.67;101760.59;4939401;28;97311;-50
2022/09/02 07:54:09;;;;;;;0.73;0.70;;;;;;;18.59;51.62;101753.63;4944007;28;96860;-47
2022/09/02 07:56:35;;;;;;;1.00;1.00;;;;;;;18.74;51.60;101758.84;4936830;28;97100;-48
2022/09/02 07:59:01;;;;;;;1.87;0.97;;;;;;;18.85;51.36;101748.31;4938294;28;97429;-48
2022/09/02 08:01:27;;;;;;;1.07;0.97;;;;;;;19.00;51.20;101770.94;4941074;28;97254;-47
2022/09/02 08:03:53;;;;;;;0.90;0.90;;;;;;;19.15;50.96;101757.38;4942045;28;97059;-48
2022/09/02 08:06:19;;;;;;;1.00;1.00;;;;;;;19.28;50.89;101751.88;4940146;28;97131;-48
2022/09/02 08:08:45;;;;;;;1.17;1.00;;;;;;;19.43;50.75;101759.81;4936045;28;100547;-48
2022/09/02 08:11:11;;;;;;;1.13;0.70;;;;;;;19.56;50.60;101761.94;4941668;28;97617;-48
2022/09/02 08:13:38;;;;;;;1.30;0.80;;;;;;;19.68;50.37;101763.31;4937708;28;96659;-48
2022/09/02 08:16:04;;;;;;;0.93;0.83;;;;;;;19.83;50.02;101763.59;4940081;28;97343;-48
2022/09/02 08:18:30;;;;;;;0.90;0.90;;;;;;;20.00;49.82;101761.28;4941670;28;98521;-48
2022/09/02 08:20:56;;;;;;;0.97;0.80;;;;;;;20.14;49.41;101760.03;4936353;28;101737;-48
2022/09/02 08:23:22;;;;;;;2.53;0.80;;;;;;;20.31;49.35;101757.78;4937776;28;97037;-48
2022/09/02 08:25:47;;;;;;;0.90;0.90;;;;;;;20.43;49.12;101758.31;4933202;28;96744;-49
2022/09/02 08:28:13;;;;;;;0.83;0.83;;;;;;;20.53;49.12;101748.97;4938290;28;101969;-48
2022/09/02 08:30:39;;;;;;;0.80;0.80;;;;;;;20.71;48.66;101762.13;4938067;28;97111;-48
2022/09/02 08:33:05;;;;;;;0.70;0.70;;;;;;;20.88;48.46;101753.44;4939958;28;97419;-48
2022/09/02 08:35:30;;;;;;;0.80;0.80;;;;;;;21.06;48.44;101763.03;4940664;28;97276;-47
2022/09/02 08:37:59;;;;;;;1.47;0.57;;;;;;;21.22;48.18;101750.75;4940054;28;98582;-48
2022/09/02 08:40:39;;;;;;;0.70;0.67;;;;;;;21.38;47.78;101746.84;4941440;28;97447;-48
2022/09/02 08:43:26;;;;;;;0.90;0.60;;;;;;;21.54;46.97;101748.50;4942188;28;97234;-48
2022/09/02 08:45:54;;;;;;;2.70;0.70;;;;;;;21.75;47.22;101749.34;4941717;28;97206;-48
2022/09/02 08:48:51;;;;;;;0.77;0.77;;;;;;;21.97;46.58;101753.69;4938118;28;100556;-48
2022/09/02 08:51:26;;;;;;;0.97;0.90;;;;;;;22.17;46.44;101748.06;4929029;28;101842;-48
2022/09/02 08:54:08;;;;;;;1.00;0.70;;;;;;;22.35;46.33;101749.16;4936672;28;97140;-48
2022/09/02 08:56:34;;;;;;;1.40;0.70;;;;;;;22.48;46.14;101746.28;4940900;28;97106;-50
2022/09/02 08:59:01;;;;;;;0.90;0.70;;;;;;;22.57;45.76;101737.38;4937615;28;96815;-48
2022/09/02 09:01:28;;;;;;;0.77;0.60;;;;;;;22.73;45.57;101730.59;4934356;28;97031;-48
2022/09/02 09:04:18;;;;;;;0.80;0.67;;;;;;;22.90;44.92;101739.28;4940141;28;97083;-48
2022/09/02 09:06:58;;;;;;;0.87;0.50;;;;;;;23.04;44.62;101735.03;4939226;28;96933;-49
2022/09/02 09:09:45;;;;;;;1.10;0.70;;;;;;;23.22;44.57;101730.44;4939661;28;97943;-48
2022/09/02 09:12:41;;;;;;;1.07;0.70;;;;;;;23.32;43.86;101736.31;4937045;28;101648;-48
2022/09/02 09:15:09;;;;;;;0.60;0.50;;;;;;;23.43;44.29;101733.94;4937239;28;97376;-48
2022/09/02 09:17:57;;;;;;;0.97;0.67;;;;;;;23.55;43.20;101731.53;4936243;28;97144;-48
2022/09/02 09:20:27;;;;;;;1.10;0.50;;;;;;;23.71;43.71;101733.84;4938508;28;101090;-48
2022/09/02 09:22:55;;;;;;;1.00;0.70;;;;;;;23.85;43.25;101720.38;4942589;28;100757;-48
2022/09/02 09:25:28;;;;;;;0.93;0.80;;;;;;;23.89;43.50;101720.00;4941119;28;96830;-48
2022/09/02 09:28:00;;;;;;;2.40;0.63;;;;;;;23.99;42.49;101709.69;4941395;28;97125;-48
2022/09/02 09:30:27;;;;;;;0.60;0.50;;;;;;;24.10;43.13;101706.53;4938046;28;99018;-48
2022/09/02 09:33:03;;;;;;;0.70;0.50;;;;;;;24.24;42.83;101707.84;4935457;28;97614;-48
2022/09/02 09:35:48;;;;;;;1.80;0.50;;;;;;;24.36;41.79;101706.16;4929938;28;97133;-48
2022/09/02 09:38:13;;;;;;;0.60;0.50;;;;;;;24.50;42.53;101704.66;4939427;28;97554;-48
2022/09/02 09:40:39;;;;;;;1.00;0.70;;;;;;;24.56;41.81;101708.00;4940205;28;97495;-48
2022/09/02 09:43:04;;;;;;;0.70;0.50;;;;;;;24.61;42.01;101712.69;4938257;28;97828;-48
2022/09/02 09:45:36;;;;;;;0.90;0.60;;;;;;;24.64;41.00;101708.00;4939485;28;97007;-48
2022/09/02 09:48:08;;;;;;;2.57;0.60;;;;;;;24.68;41.17;101711.94;4940969;28;97003;-47
2022/09/02 09:50:33;;;;;;;3.23;0.70;;;;;;;24.78;41.62;101695.22;4934005;28;97346;-48
2022/09/02 09:53:20;;;;;;;0.60;0.53;;;;;;;24.86;40.09;101696.69;4941069;28;97273;-48
2022/09/02 09:56:08;;;;;;;1.10;0.57;;;;;;;24.95;40.16;101689.72;4938797;28;97341;-48
2022/09/02 09:58:44;;;;;;;2.23;0.93;;;;;;;25.04;40.08;101694.75;4936272;28;96830;-48
2022/09/02 10:01:22;;;;;;;0.90;0.60;;;;;;;25.08;38.63;101690.22;4942502;28;97641;-48
2022/09/02 10:03:51;;;;;;;0.70;0.60;;;;;;;25.08;40.23;101689.47;4937313;28;98330;-48
2022/09/02 10:06:24;;;;;;;0.70;0.53;;;;;;;25.09;39.84;101686.09;4939361;28;96885;-48
2022/09/02 10:08:55;;;;;;;0.60;0.43;;;;;;;25.15;39.85;101685.88;4938384;28;97504;-48
2022/09/02 10:11:26;;;;;;;1.73;0.50;;;;;;;25.16;39.62;101690.94;4935948;28;97752;-48
2022/09/02 10:13:58;;;;;;;0.70;0.50;;;;;;;25.19;38.67;101670.09;4940694;28;98425;-49
2022/09/02 10:16:27;;;;;;;1.37;0.80;;;;;;;25.25;39.66;101681.13;4938800;28;97144;-48
2022/09/02 10:19:02;;;;;;;0.70;0.57;;;;;;;25.27;39.18;101676.44;4936395;28;97311;-49
2022/09/02 10:21:38;;;;;;;0.70;0.50;;;;;;;25.35;38.29;101679.22;4936583;28;97567;-47
2022/09/02 10:24:13;;;;;;;1.93;0.50;;;;;;;25.38;38.82;101660.41;4936513;28;96981;-48
2022/09/02 10:26:52;;;;;;;0.60;0.50;;;;;;;25.42;37.00;101660.75;4936761;28;97224;-48
2022/09/02 10:29:39;;;;;;;1.30;0.70;;;;;;;25.50;38.24;101653.03;4938270;28;96956;-50
2022/09/02 10:32:11;;;;;;;1.93;0.50;;;;;;;25.57;37.79;101660.69;4933450;28;100717;-48
2022/09/02 10:35:00;;;;;;;1.77;0.50;;;;;;;25.59;37.94;101658.03;4939621;28;96819;-50
2022/09/02 10:37:37;;;;;;;0.60;0.50;;;;;;;25.54;38.16;101653.38;4936903;28;97065;-47
2022/09/02 10:40:13;;;;;;;1.23;0.50;;;;;;;25.62;37.95;101645.63;4936838;28;96868;-47
2022/09/02 10:42:45;;;;;;;0.60;0.50;;;;;;;25.71;37.49;101644.97;4936843;28;101853;-47
2022/09/02 10:45:11;;;;;;;1.20;0.50;;;;;;;25.83;37.82;101643.22;4931429;28;97361;-50
2022/09/02 10:47:38;;;;;;;0.67;0.43;;;;;;;25.92;37.68;101632.03;4940136;28;97209;-49
2022/09/02 10:50:12;;;;;;;1.13;0.50;;;;;;;26.01;37.35;101639.13;4940796;28;96726;-47
2022/09/02 10:52:44;;;;;;;1.00;0.63;;;;;;;26.06;36.71;101631.75;4937805;28;96908;-47
2022/09/02 10:55:40;;;;;;;0.90;0.70;;;;;;;26.09;36.00;101631.34;4938108;28;96690;-48
2022/09/02 10:58:21;;;;;;;1.10;0.60;;;;;;;26.24;35.81;101628.38;4938923;28;97011;-50
2022/09/02 11:00:49;;;;;;;0.90;0.60;;;;;;;26.39;36.90;101624.63;4939727;28;96973;-48
2022/09/02 11:03:42;;;;;;;0.90;0.67;;;;;;;26.49;35.38;101629.06;4938043;28;96805;-47
2022/09/02 11:06:13;;;;;;;1.03;0.50;;;;;;;26.59;36.36;101627.06;4938289;28;103576;-50
2022/09/02 11:08:45;;;;;;;0.70;0.60;;;;;;;26.68;35.95;101626.38;4936432;28;97468;-47
2022/09/02 11:11:47;;;;;;;3.93;0.67;;;;;;;26.79;34.99;101616.69;4937658;28;96944;-48
2022/09/02 11:14:25;;;;;;;1.07;0.50;;;;;;;26.92;35.68;101618.41;4934529;28;102458;-47
2022/09/02 11:17:02;;;;;;;0.80;0.50;;;;;;;27.02;35.73;101605.09;4936991;28;97093;-48
2022/09/02 11:19:38;;;;;;;0.93;0.60;;;;;;;27.23;34.22;101616.66;4938041;28;97132;-47
2022/09/02 11:22:25;;;;;;;2.17;0.67;;;;;;;27.31;32.85;101611.63;4938807;28;97319;-48
2022/09/02 11:24:59;;;;;;;0.70;0.57;;;;;;;27.35;34.72;101604.25;4935648;28;100526;-50
2022/09/02 11:27:35;;;;;;;1.30;0.70;;;;;;;27.52;34.39;101599.84;4943121;28;98459;-48
2022/09/02 11:30:17;;;;;;;0.80;0.60;;;;;;;27.63;33.82;101602.84;4938652;28;96772;-49
2022/09/02 11:32:51;;;;;;;0.70;0.60;;;;;;;27.72;34.15;101601.41;4939919;28;96806;-47